Time;durP1;ratioP1;P1;durP2;ratioP2;P2;SDS_P1;SDS_P2;PMS_P1;PMS_P2;Temp;Humidity;BMP_temperature;BMP_pressure;BME280_temperature;BME280_humidity;BME280_pressure;Samples;Min_cycle;Max_cycle;Signal;HPM_P1;HPM_P2
2022/01/09 00:01:44;;;;;;;10.02;2.10;;;;;;;-149.78;100.00;50530.13;5072938;28;20033;-62
2022/01/09 00:04:10;;;;;;;15.13;2.75;;;;;;;-149.78;100.00;50580.97;5072728;28;20043;-62
2022/01/09 00:06:35;;;;;;;15.65;2.58;;;;;;;-149.78;100.00;50518.38;5072920;28;20033;-62
2022/01/09 00:09:01;;;;;;;7.07;2.00;;;;;;;-149.78;100.00;50580.97;5073052;28;20037;-62
2022/01/09 00:11:27;;;;;;;12.35;1.95;;;;;;;-149.78;100.00;50543.81;5073062;28;20059;-62
2022/01/09 00:13:57;;;;;;;12.13;1.88;;;;;;;-149.78;100.00;50563.38;5072969;28;20140;-62
2022/01/09 00:16:23;;;;;;;9.82;2.00;;;;;;;-149.78;100.00;50561.41;5073065;28;20029;-62
2022/01/09 00:18:50;;;;;;;15.77;2.33;;;;;;;-149.78;100.00;50557.50;5072873;28;20442;-62
2022/01/09 00:21:17;;;;;;;14.98;2.17;;;;;;;-149.78;100.00;50561.41;5073110;28;20032;-62
2022/01/09 00:23:44;;;;;;;11.45;1.73;;;;;;;-149.78;100.00;50582.94;5072238;28;20048;-65
2022/01/09 00:26:11;;;;;;;12.55;1.98;;;;;;;-149.78;100.00;50559.47;5072733;28;20040;-66
2022/01/09 00:28:37;;;;;;;12.48;2.25;;;;;;;-149.78;100.00;50539.91;5072699;28;20033;-65
2022/01/09 00:31:03;;;;;;;11.30;2.00;;;;;;;-149.78;100.00;50549.69;5072828;28;20528;-65
2022/01/09 00:33:28;;;;;;;7.75;2.10;;;;;;;-149.78;100.00;50530.13;5072704;28;20044;-65
2022/01/09 00:35:54;;;;;;;12.07;2.00;;;;;;;-149.78;100.00;50541.84;5072811;28;20040;-66
2022/01/09 00:38:20;;;;;;;13.65;2.08;;;;;;;-149.78;100.00;50553.59;5072414;28;20033;-66
2022/01/09 00:40:46;;;;;;;13.93;2.08;;;;;;;-149.78;100.00;50565.31;5072451;28;20115;-62
2022/01/09 00:43:12;;;;;;;20.55;2.20;;;;;;;-149.78;100.00;50532.06;5072549;28;20043;-62
2022/01/09 00:45:39;;;;;;;8.90;2.08;;;;;;;-149.78;100.00;50541.84;5076013;28;20372;-62
2022/01/09 00:48:05;;;;;;;10.02;2.67;;;;;;;-149.78;100.00;50522.28;5058784;28;20547;-63
2022/01/09 00:50:32;;;;;;;11.95;1.98;;;;;;;-149.78;100.00;50549.69;5076429;28;20055;-65
2022/01/09 00:52:58;;;;;;;16.70;2.50;;;;;;;-149.78;100.00;50535.97;5076336;28;20040;-66
2022/01/09 00:55:25;;;;;;;13.57;2.55;;;;;;;-149.78;100.00;50530.13;5076121;28;20437;-66
2022/01/09 00:57:50;;;;;;;17.88;2.13;;;;;;;-149.78;100.00;50534.03;5076139;28;20087;-66
2022/01/09 01:00:16;;;;;;;13.00;2.30;;;;;;;-149.78;100.00;50539.91;5075826;28;20076;-62
2022/01/09 01:02:42;;;;;;;10.43;1.98;;;;;;;-149.78;100.00;50557.50;5075817;28;20047;-62
2022/01/09 01:05:08;;;;;;;12.13;2.13;;;;;;;-149.78;100.00;50534.03;5076029;28;20045;-62
2022/01/09 01:07:35;;;;;;;13.00;2.22;;;;;;;-149.78;100.00;50553.59;5076154;28;20032;-62
2022/01/09 01:10:00;;;;;;;16.83;2.30;;;;;;;-149.78;100.00;50549.69;5076009;28;20477;-62
2022/01/09 01:12:29;;;;;;;14.23;2.78;;;;;;;-149.78;100.00;50561.41;5076073;28;20039;-63
2022/01/09 01:14:55;;;;;;;17.75;2.50;;;;;;;-149.78;100.00;50537.94;5075974;28;20024;-62
2022/01/09 01:17:22;;;;;;;12.07;2.20;;;;;;;-149.78;100.00;50498.81;5058227;28;20040;-62
2022/01/09 01:19:49;;;;;;;16.65;2.25;;;;;;;-149.78;100.00;50534.03;5075801;28;20040;-62
2022/01/09 01:22:15;;;;;;;11.82;2.10;;;;;;;-149.78;100.00;50565.31;5075415;28;20032;-62
2022/01/09 01:24:46;;;;;;;13.95;1.80;;;;;;;-149.78;100.00;50530.13;5075384;28;20040;-63
2022/01/09 01:27:11;;;;;;;11.25;2.20;;;;;;;-149.78;100.00;50543.81;5057975;28;20036;-63
2022/01/09 01:29:37;;;;;;;14.15;2.05;;;;;;;-149.78;100.00;50541.84;5075238;28;20399;-62
2022/01/09 01:32:04;;;;;;;7.40;2.33;;;;;;;-149.78;100.00;50561.41;5075175;28;20426;-62
2022/01/09 01:34:30;;;;;;;22.80;3.03;;;;;;;-149.78;100.00;50557.50;5075089;28;20074;-62
2022/01/09 01:36:55;;;;;;;13.07;2.03;;;;;;;-149.78;100.00;50555.53;5075492;28;20427;-62
2022/01/09 01:39:21;;;;;;;18.35;2.60;;;;;;;-149.78;100.00;50545.75;5075616;28;20089;-63
2022/01/09 01:41:47;;;;;;;8.45;2.20;;;;;;;-149.78;100.00;50534.03;5075291;28;20043;-62
2022/01/09 01:44:13;;;;;;;9.40;2.40;;;;;;;-149.78;100.00;50549.69;5075344;28;20036;-62
2022/01/09 01:46:39;;;;;;;14.15;2.28;;;;;;;-149.78;100.00;50573.16;5075352;28;20068;-62
2022/01/09 01:49:05;;;;;;;19.60;1.98;;;;;;;-149.78;100.00;50582.94;5075260;28;20033;-62
2022/01/09 01:51:34;;;;;;;20.48;3.25;;;;;;;-149.78;100.00;50557.50;5057901;28;20120;-63
2022/01/09 01:54:01;;;;;;;14.75;2.42;;;;;;;-149.78;100.00;50541.84;5057338;28;20075;-62
2022/01/09 01:56:28;;;;;;;13.27;2.15;;;;;;;-149.78;100.00;50555.53;5073939;28;20036;-62
2022/01/09 01:58:54;;;;;;;12.77;2.13;;;;;;;-149.78;100.00;50530.13;5074818;28;20043;-62
2022/01/09 02:01:20;;;;;;;17.10;2.42;;;;;;;-149.78;100.00;50541.84;5075000;28;20115;-63
2022/01/09 02:03:46;;;;;;;14.25;1.85;;;;;;;-149.78;100.00;50577.06;5056926;28;20032;-63
2022/01/09 02:06:14;;;;;;;14.95;3.17;;;;;;;-149.78;100.00;50553.59;5074784;28;20071;-62
2022/01/09 02:08:43;;;;;;;18.02;2.40;;;;;;;-149.78;100.00;50532.06;5056925;28;20039;-65
2022/01/09 02:11:12;;;;;;;10.63;2.83;;;;;;;-149.78;100.00;50545.75;5074620;28;20034;-65
2022/01/09 02:13:40;;;;;;;13.98;2.35;;;;;;;-149.78;100.00;50561.41;5074796;28;20025;-65
2022/01/09 02:16:07;;;;;;;13.32;2.28;;;;;;;-149.78;100.00;50561.41;5057309;28;20036;-65
2022/01/09 02:18:33;;;;;;;10.45;1.90;;;;;;;-149.78;100.00;50557.50;5074572;28;20135;-65
2022/01/09 02:20:59;;;;;;;21.83;2.28;;;;;;;-149.78;100.00;50532.06;5074709;28;20052;-65
2022/01/09 02:23:25;;;;;;;21.90;2.53;;;;;;;-149.78;100.00;50528.16;5056730;28;20048;-66
2022/01/09 02:25:51;;;;;;;20.58;2.65;;;;;;;-149.78;100.00;50510.56;5074478;28;20052;-66
2022/01/09 02:28:18;;;;;;;16.50;2.30;;;;;;;-149.78;100.00;50561.41;5074566;28;20036;-66
2022/01/09 02:30:44;;;;;;;20.20;2.35;;;;;;;-149.78;100.00;50584.88;5074277;28;20048;-62
2022/01/09 02:33:15;;;;;;;19.10;2.45;;;;;;;-149.78;100.00;50526.22;5074052;28;20036;-62
2022/01/09 02:35:41;;;;;;;17.73;2.67;;;;;;;-149.78;100.00;50557.50;5074080;28;20036;-63
2022/01/09 02:38:06;;;;;;;15.70;2.40;;;;;;;-149.78;100.00;50537.94;5073899;28;20345;-63
2022/01/09 02:40:33;;;;;;;16.65;2.80;;;;;;;-149.78;100.00;50532.06;5074091;28;20089;-63
2022/01/09 02:42:59;;;;;;;13.10;2.40;;;;;;;-149.78;100.00;50565.31;5073752;28;20462;-63
2022/01/09 02:45:26;;;;;;;14.77;2.40;;;;;;;-149.78;100.00;50584.88;5073924;28;20071;-63
2022/01/09 02:47:54;;;;;;;13.95;2.60;;;;;;;-149.78;100.00;50541.84;5074117;28;20040;-63
2022/01/09 02:53:01;;;;;;;17.92;2.75;;;;;;;-149.78;100.00;50526.22;5073881;28;20082;-63
2022/01/09 02:55:29;;;;;;;15.13;2.55;;;;;;;-149.78;100.00;50580.97;5056044;28;20105;-62
2022/01/09 02:57:59;;;;;;;17.90;2.17;;;;;;;-149.78;100.00;50565.31;5055942;28;20028;-62
2022/01/09 03:00:32;;;;;;;13.43;2.13;;;;;;;-149.78;100.00;50569.22;5073847;28;20369;-62
2022/01/09 03:02:58;;;;;;;15.48;3.22;;;;;;;-149.78;100.00;50547.72;5073763;28;20082;-63
2022/01/09 03:05:24;;;;;;;13.73;2.38;;;;;;;-149.78;100.00;50557.50;5073918;28;20040;-65
2022/01/09 03:07:50;;;;;;;24.38;2.60;;;;;;;-149.78;100.00;50557.50;5073348;28;20032;-66
2022/01/09 03:10:18;;;;;;;17.10;2.33;;;;;;;-149.78;100.00;50553.59;5073791;28;20067;-66
2022/01/09 03:12:45;;;;;;;15.68;2.90;;;;;;;-149.78;100.00;50534.03;5055748;28;20032;-66
2022/01/09 03:15:11;;;;;;;20.48;2.95;;;;;;;-149.78;100.00;50553.59;5073611;28;20044;-62
2022/01/09 03:17:37;;;;;;;16.63;2.70;;;;;;;-149.78;100.00;50553.59;5073716;28;20399;-65
2022/01/09 03:20:05;;;;;;;25.58;2.65;;;;;;;-149.78;100.00;50563.38;5073397;28;20036;-65
2022/01/09 03:22:31;;;;;;;13.88;2.40;;;;;;;-149.78;100.00;50539.91;5073610;28;20048;-65
2022/01/09 03:24:56;;;;;;;17.13;2.40;;;;;;;-149.78;100.00;50537.94;5073178;28;20041;-65
2022/01/09 03:27:22;;;;;;;14.65;2.47;;;;;;;-149.78;100.00;50573.16;5073542;28;20098;-66
2022/01/09 03:29:48;;;;;;;15.43;2.33;;;;;;;-149.78;100.00;50537.94;5073311;28;20050;-66
2022/01/09 03:32:14;;;;;;;14.60;2.38;;;;;;;-149.78;100.00;50549.69;5073329;28;20036;-66
2022/01/09 03:34:40;;;;;;;13.23;1.98;;;;;;;-149.78;100.00;50573.16;5073242;28;20048;-66
2022/01/09 03:37:06;;;;;;;17.40;2.30;;;;;;;-149.78;100.00;50534.03;5065554;28;20040;-66
2022/01/09 03:39:32;;;;;;;8.80;1.98;;;;;;;-149.78;100.00;50545.75;5073213;28;20495;-66
2022/01/09 03:41:59;;;;;;;13.25;2.60;;;;;;;-149.78;100.00;50534.03;5073235;28;20036;-66
2022/01/09 03:44:25;;;;;;;8.27;1.80;;;;;;;-149.78;100.00;50541.84;5049746;28;20461;-66
2022/01/09 03:46:51;;;;;;;10.48;2.30;;;;;;;-149.78;100.00;50561.41;5072539;28;20040;-66
2022/01/09 03:49:17;;;;;;;9.20;2.35;;;;;;;-149.78;100.00;50565.31;5073059;28;20032;-65
2022/01/09 03:51:44;;;;;;;12.50;1.80;;;;;;;-149.78;100.00;50506.66;5072980;28;20391;-65
2022/01/09 03:54:10;;;;;;;16.85;2.20;;;;;;;-149.78;100.00;50530.13;5073051;28;20345;-66
2022/01/09 03:56:36;;;;;;;9.43;1.98;;;;;;;-149.78;100.00;50539.91;5073025;28;20078;-66
2022/01/09 03:59:01;;;;;;;7.43;1.90;;;;;;;-149.78;100.00;50561.41;5072838;28;20044;-66
2022/01/09 04:01:27;;;;;;;17.40;2.53;;;;;;;-149.78;100.00;50565.31;5073158;28;20036;-66
2022/01/09 04:03:53;;;;;;;11.63;2.15;;;;;;;-149.78;100.00;50565.31;5072891;28;20116;-66
2022/01/09 04:06:19;;;;;;;6.13;1.77;;;;;;;-149.78;100.00;50508.59;5054760;28;20036;-66
2022/01/09 04:08:45;;;;;;;13.15;2.00;;;;;;;-149.78;100.00;50541.84;5072648;28;20024;-66
2022/01/09 04:11:15;;;;;;;13.57;3.05;;;;;;;-149.78;100.00;50559.47;5072715;28;20044;-66
2022/01/09 04:13:41;;;;;;;6.85;2.10;;;;;;;-149.78;100.00;50534.03;5072874;28;20055;-67
2022/01/09 04:16:07;;;;;;;9.65;1.95;;;;;;;-149.78;100.00;50539.91;5073048;28;20040;-63
2022/01/09 04:18:33;;;;;;;8.25;2.03;;;;;;;-149.78;100.00;50537.94;5072821;28;20040;-63
2022/01/09 04:20:58;;;;;;;14.50;2.10;;;;;;;-149.78;100.00;50535.97;5077050;28;20040;-63
2022/01/09 04:23:24;;;;;;;16.88;2.63;;;;;;;-149.78;100.00;50541.84;5076674;28;20053;-63
2022/01/09 04:25:51;;;;;;;13.02;2.05;;;;;;;-149.78;100.00;50575.09;5076849;28;20048;-62
2022/01/09 04:28:18;;;;;;;13.55;2.92;;;;;;;-149.78;100.00;50535.97;5076848;28;20386;-65
2022/01/09 04:30:44;;;;;;;21.58;2.95;;;;;;;-149.78;100.00;50577.06;5076676;28;20040;-65
2022/01/09 04:33:10;;;;;;;17.88;1.67;;;;;;;-149.78;100.00;50549.69;5076856;28;20032;-63
2022/01/09 04:35:37;;;;;;;12.05;3.50;;;;;;;-149.78;100.00;50557.50;5076675;28;20464;-63
2022/01/09 04:38:04;;;;;;;7.53;2.47;;;;;;;-149.78;100.00;50532.06;5076884;28;20033;-65
2022/01/09 04:40:29;;;;;;;19.08;2.90;;;;;;;-149.78;100.00;50557.50;5058816;28;20051;-66
2022/01/09 04:42:59;;;;;;;18.75;2.92;;;;;;;-149.78;100.00;50535.97;5068972;28;20429;-65
2022/01/09 04:45:28;;;;;;;10.93;2.97;;;;;;;-149.78;100.00;50579.00;5073883;28;20033;-62
2022/01/09 04:47:58;;;;;;;9.40;2.35;;;;;;;-149.78;100.00;50537.94;5068823;28;20127;-62
2022/01/09 04:50:25;;;;;;;13.35;2.50;;;;;;;-149.78;100.00;50539.91;5072264;28;20574;-63
2022/01/09 04:53:02;;;;;;;11.15;2.92;;;;;;;-149.78;100.00;50537.94;5058797;28;20478;-62
2022/01/09 04:55:29;;;;;;;9.80;2.75;;;;;;;-149.78;100.00;50569.22;5076137;28;20404;-65
2022/01/09 04:57:55;;;;;;;13.88;3.28;;;;;;;-149.78;100.00;50520.34;5076105;28;20051;-65
2022/01/09 05:00:21;;;;;;;15.65;2.72;;;;;;;-149.78;100.00;50547.72;5069576;28;20044;-65
2022/01/09 05:02:48;;;;;;;10.10;2.78;;;;;;;-149.78;100.00;50514.47;5073347;28;20032;-65
2022/01/09 05:05:14;;;;;;;16.08;3.60;;;;;;;-149.78;100.00;50545.75;5057296;28;20578;-65
2022/01/09 05:07:41;;;;;;;16.75;3.92;;;;;;;-149.78;100.00;50573.16;5058306;28;20036;-65
2022/01/09 05:10:09;;;;;;;13.38;4.95;;;;;;;-149.78;100.00;50569.22;5075361;28;20115;-65
2022/01/09 05:12:35;;;;;;;18.17;3.47;;;;;;;-149.78;100.00;50541.84;5075819;28;20033;-65
2022/01/09 05:15:04;;;;;;;12.88;3.65;;;;;;;-149.78;100.00;50545.75;5075800;28;20394;-65
2022/01/09 05:17:30;;;;;;;10.40;3.42;;;;;;;-149.78;100.00;50565.31;5075443;28;20044;-65
2022/01/09 05:19:57;;;;;;;10.85;3.30;;;;;;;-149.78;100.00;50530.13;5073694;28;20029;-65
2022/01/09 05:22:27;;;;;;;12.32;2.47;;;;;;;-149.78;100.00;50535.97;5075002;28;20040;-65
2022/01/09 05:24:57;;;;;;;13.52;2.65;;;;;;;-149.78;100.00;50592.72;5074747;28;20043;-65
2022/01/09 05:27:24;;;;;;;16.23;3.10;;;;;;;-149.78;100.00;50534.03;5075159;28;20033;-65
2022/01/09 05:29:50;;;;;;;10.60;2.80;;;;;;;-149.78;100.00;50579.00;5074880;28;20120;-65
2022/01/09 05:32:15;;;;;;;18.35;2.80;;;;;;;-149.78;100.00;50577.06;5075139;28;20111;-65
2022/01/09 05:34:41;;;;;;;10.38;2.60;;;;;;;-149.78;100.00;50534.03;5075397;28;20123;-65
2022/01/09 05:37:07;;;;;;;10.32;2.30;;;;;;;-149.78;100.00;50584.88;5075265;28;20043;-65
2022/01/09 05:39:33;;;;;;;11.57;2.90;;;;;;;-149.78;100.00;50545.75;5075525;28;20028;-65
2022/01/09 05:42:02;;;;;;;14.48;3.50;;;;;;;-149.78;100.00;50557.50;5075358;28;20094;-65
2022/01/09 05:44:28;;;;;;;23.92;4.55;;;;;;;-149.78;100.00;50600.53;5075433;28;20119;-65
2022/01/09 05:46:54;;;;;;;26.92;5.28;;;;;;;-149.78;100.00;50549.69;5075196;28;20074;-65
2022/01/09 05:49:20;;;;;;;16.88;5.57;;;;;;;-149.78;100.00;50561.41;5075063;28;20054;-65
2022/01/09 05:51:45;;;;;;;16.40;4.90;;;;;;;-149.78;100.00;50555.53;5075261;28;20506;-65
2022/01/09 05:54:11;;;;;;;17.73;5.40;;;;;;;-149.78;100.00;50530.13;5075159;28;20025;-65
2022/01/09 05:56:37;;;;;;;17.52;5.55;;;;;;;-149.78;100.00;50590.75;5075269;28;20064;-66
2022/01/09 05:59:02;;;;;;;13.02;5.50;;;;;;;-149.78;100.00;50577.06;5074847;28;20036;-65
2022/01/09 06:01:28;;;;;;;16.88;5.35;;;;;;;-149.78;100.00;50586.84;5075095;28;20086;-66
2022/01/09 06:03:54;;;;;;;20.83;6.50;;;;;;;-149.78;100.00;50557.50;5074788;28;20036;-62
2022/01/09 06:06:19;;;;;;;15.88;5.75;;;;;;;-149.78;100.00;50555.53;5074975;28;20048;-62
2022/01/09 06:08:45;;;;;;;12.73;5.90;;;;;;;-149.78;100.00;50557.50;5074608;28;20024;-62
2022/01/09 06:11:11;;;;;;;18.45;5.80;;;;;;;-149.78;100.00;50580.97;5074502;28;20119;-62
2022/01/09 06:13:36;;;;;;;11.25;4.50;;;;;;;-149.78;100.00;50573.16;5074767;28;20025;-65
2022/01/09 06:16:03;;;;;;;8.35;4.07;;;;;;;-149.78;100.00;50580.97;5074825;28;20661;-65
2022/01/09 06:18:29;;;;;;;14.45;3.90;;;;;;;-149.78;100.00;50573.16;5056805;28;20430;-65
2022/01/09 06:20:55;;;;;;;14.02;3.92;;;;;;;-149.78;100.00;50534.03;5074686;28;20028;-65
2022/01/09 06:23:21;;;;;;;8.18;3.53;;;;;;;-149.78;100.00;50586.84;5074475;28;20039;-65
2022/01/09 06:25:48;;;;;;;8.60;3.13;;;;;;;-149.78;100.00;50573.16;5074636;28;20041;-65
2022/01/09 06:28:14;;;;;;;9.52;3.47;;;;;;;-149.78;100.00;50561.41;5074703;28;20044;-65
2022/01/09 06:30:40;;;;;;;8.20;2.80;;;;;;;-149.78;100.00;50557.50;5074684;28;20063;-65
2022/01/09 06:33:06;;;;;;;8.27;2.75;;;;;;;-149.78;100.00;50577.06;5071021;28;20467;-65
2022/01/09 06:35:31;;;;;;;7.88;2.90;;;;;;;-149.78;100.00;50577.06;5074641;28;20046;-65
2022/01/09 06:37:57;;;;;;;7.47;2.58;;;;;;;-149.78;100.00;50588.78;5074406;28;20040;-62
2022/01/09 06:40:22;;;;;;;11.55;2.67;;;;;;;-149.78;100.00;50592.72;5074258;28;20040;-62
2022/01/09 06:42:51;;;;;;;7.60;2.15;;;;;;;-149.78;100.00;50549.69;5073721;28;20044;-65
2022/01/09 06:45:17;;;;;;;7.57;2.20;;;;;;;-149.78;100.00;50553.59;5074455;28;20029;-65
2022/01/09 06:47:43;;;;;;;6.90;2.50;;;;;;;-149.78;100.00;50571.19;5056493;28;20102;-65
2022/01/09 06:50:10;;;;;;;11.18;2.47;;;;;;;-149.78;100.00;50543.81;5056243;28;20119;-65
2022/01/09 06:52:37;;;;;;;7.85;2.45;;;;;;;-149.78;100.00;50596.63;5074197;28;20060;-66
2022/01/09 06:55:04;;;;;;;13.48;2.80;;;;;;;-149.78;100.00;50530.13;5074256;28;20058;-62
2022/01/09 06:57:30;;;;;;;6.95;2.95;;;;;;;-149.78;100.00;50571.19;5074107;28;20045;-62
2022/01/09 06:59:56;;;;;;;9.18;2.78;;;;;;;-149.78;100.00;50545.75;5073994;28;20056;-62
2022/01/09 07:02:21;;;;;;;9.85;3.00;;;;;;;-149.78;100.00;50584.88;5057405;28;20488;-62
2022/01/09 07:04:47;;;;;;;12.88;3.50;;;;;;;-149.78;100.00;50561.41;5053930;28;20349;-62
2022/01/09 07:07:12;;;;;;;8.60;3.42;;;;;;;-149.78;100.00;50580.97;5053878;28;20120;-65
2022/01/09 07:09:39;;;;;;;13.80;3.85;;;;;;;-149.78;100.00;50584.88;5059512;28;20028;-65
2022/01/09 07:12:05;;;;;;;16.02;5.00;;;;;;;-149.78;100.00;50534.03;5073862;28;20032;-62
2022/01/09 07:14:31;;;;;;;14.43;4.95;;;;;;;-149.78;100.00;50541.84;5073804;28;20063;-62
2022/01/09 07:16:56;;;;;;;17.35;5.30;;;;;;;-149.78;100.00;50557.50;5073860;28;20037;-62
2022/01/09 07:19:22;;;;;;;16.88;5.43;;;;;;;-149.78;100.00;50577.06;5073712;28;20037;-65
2022/01/09 07:21:48;;;;;;;14.70;4.95;;;;;;;-149.78;100.00;50579.00;5055673;28;20742;-65
2022/01/09 07:24:13;;;;;;;17.77;5.07;;;;;;;-149.78;100.00;50580.97;5073278;28;20053;-65
2022/01/09 07:26:39;;;;;;;17.13;4.78;;;;;;;-149.78;100.00;50561.41;5073530;28;20093;-65
2022/01/09 07:29:04;;;;;;;15.52;5.55;;;;;;;-149.78;100.00;50553.59;5073375;28;20032;-65
2022/01/09 07:31:30;;;;;;;17.38;4.93;;;;;;;-149.78;100.00;50614.22;5073449;28;20037;-65
2022/01/09 07:33:56;;;;;;;15.25;4.97;;;;;;;-149.78;100.00;50549.69;5073373;28;20063;-65
2022/01/09 07:36:21;;;;;;;15.00;4.85;;;;;;;-149.78;100.00;50559.47;5055313;28;20033;-65
2022/01/09 07:38:47;;;;;;;22.77;5.53;;;;;;;-149.78;100.00;50573.16;5073627;28;20028;-65
2022/01/09 07:41:14;;;;;;;18.67;5.35;;;;;;;-149.78;100.00;50580.97;5073270;28;20032;-65
2022/01/09 07:43:41;;;;;;;14.88;4.78;;;;;;;-149.78;100.00;50606.41;5073046;28;20041;-65
2022/01/09 07:46:07;;;;;;;21.23;6.20;;;;;;;-149.78;100.00;50551.63;5066657;28;20061;-65
2022/01/09 07:48:32;;;;;;;8.45;3.70;;;;;;;-149.78;100.00;50579.00;5052722;28;20496;-65
2022/01/09 07:50:58;;;;;;;10.90;3.60;;;;;;;-149.78;100.00;50590.75;5059686;28;20029;-65
2022/01/09 07:53:24;;;;;;;12.32;3.70;;;;;;;-149.78;100.00;50537.94;5063112;28;20461;-65
2022/01/09 07:55:51;;;;;;;12.85;3.88;;;;;;;-149.78;100.00;50602.47;5058563;28;20041;-65
2022/01/09 07:58:18;;;;;;;9.20;3.45;;;;;;;-149.78;100.00;50580.97;5060961;28;20033;-65
2022/01/09 08:00:43;;;;;;;14.43;3.78;;;;;;;-149.78;100.00;50549.69;5065139;28;20063;-65
2022/01/09 08:03:12;;;;;;;15.02;3.67;;;;;;;-149.78;100.00;50573.16;5064886;28;20087;-65
2022/01/09 08:05:38;;;;;;;15.05;3.72;;;;;;;-149.78;100.00;50580.97;5062001;28;20040;-65
2022/01/09 08:08:05;;;;;;;8.73;3.53;;;;;;;-149.78;100.00;50604.44;5063666;28;20033;-62
2022/01/09 08:10:31;;;;;;;10.18;4.05;;;;;;;-149.78;100.00;50565.31;5064858;28;20127;-61
2022/01/09 08:12:56;;;;;;;14.43;4.18;;;;;;;-149.78;100.00;50573.16;5038486;28;20124;-61
2022/01/09 08:15:22;;;;;;;14.80;4.75;;;;;;;-149.78;100.00;50596.63;5064829;28;20020;-61
2022/01/09 08:17:49;;;;;;;21.88;4.63;;;;;;;-149.78;100.00;50541.84;5066489;28;20033;-62
2022/01/09 08:20:16;;;;;;;9.77;4.22;;;;;;;-149.78;100.00;50592.72;5068389;28;20115;-62
2022/01/09 08:22:42;;;;;;;13.70;4.50;;;;;;;-149.78;100.00;50588.78;5070196;28;20489;-66
2022/01/09 08:25:12;;;;;;;8.50;4.30;;;;;;;-149.78;100.00;50530.13;5072704;28;20056;-65
2022/01/09 08:27:38;;;;;;;17.10;5.45;;;;;;;-149.78;100.00;50565.31;5038530;28;20468;-64
2022/01/09 08:30:06;;;;;;;14.43;4.18;;;;;;;-149.78;100.00;50551.63;5069516;28;20055;-64
2022/01/09 08:32:34;;;;;;;20.80;5.20;;;;;;;-149.78;100.00;50575.09;5064088;28;20037;-65
2022/01/09 08:35:03;;;;;;;17.25;4.68;;;;;;;-149.78;100.00;50557.50;5061157;28;20044;-65
2022/01/09 08:37:28;;;;;;;12.73;4.32;;;;;;;-149.78;100.00;50569.22;5064226;28;20037;-64
2022/01/09 08:39:55;;;;;;;11.93;3.60;;;;;;;-149.78;100.00;50588.78;5071259;28;20110;-64
2022/01/09 08:42:21;;;;;;;9.98;3.65;;;;;;;-149.78;100.00;50590.75;5041285;28;20048;-62
2022/01/09 08:44:46;;;;;;;20.42;4.03;;;;;;;-149.78;100.00;50577.06;5062175;28;20480;-62
2022/01/09 08:47:12;;;;;;;15.38;3.60;;;;;;;-149.78;100.00;50573.16;5056840;28;20461;-62
2022/01/09 08:49:38;;;;;;;10.23;3.30;;;;;;;-149.78;100.00;50545.75;5052748;28;20040;-62
2022/01/09 08:52:04;;;;;;;7.93;2.95;;;;;;;-149.78;100.00;50549.69;5053489;28;20079;-64
2022/01/09 08:54:31;;;;;;;15.55;3.33;;;;;;;-149.78;100.00;50561.41;5064222;28;20440;-64
2022/01/09 08:56:58;;;;;;;20.33;3.40;;;;;;;-149.78;100.00;50588.78;5054700;28;20029;-64
2022/01/09 08:59:24;;;;;;;11.95;2.80;;;;;;;-149.78;100.00;50541.84;5060042;28;20033;-64
2022/01/09 09:01:50;;;;;;;10.80;2.83;;;;;;;-149.78;100.00;50559.47;5054101;28;20496;-64
2022/01/09 09:04:16;;;;;;;20.85;2.85;;;;;;;-149.78;100.00;50565.31;5074063;28;20149;-61
2022/01/09 09:06:42;;;;;;;8.85;2.97;;;;;;;-149.78;100.00;50565.31;5077203;28;20047;-61
2022/01/09 09:09:08;;;;;;;10.95;2.78;;;;;;;-149.78;100.00;50600.53;5061512;28;20115;-61
2022/01/09 09:11:35;;;;;;;11.27;2.80;;;;;;;-149.78;100.00;50549.69;5076146;28;20043;-62
2022/01/09 09:14:02;;;;;;;16.17;2.95;;;;;;;-149.78;100.00;50534.03;5076124;28;20032;-61
2022/01/09 09:16:29;;;;;;;15.13;2.58;;;;;;;-149.78;100.00;50555.53;5076183;28;20044;-61
2022/01/09 09:18:54;;;;;;;14.80;3.13;;;;;;;-149.78;100.00;50545.75;5076007;28;20067;-62
2022/01/09 09:21:20;;;;;;;8.68;2.10;;;;;;;-149.78;100.00;50543.81;5058062;28;20036;-62
2022/01/09 09:23:46;;;;;;;17.85;2.88;;;;;;;-149.78;100.00;50557.50;5057907;28;20040;-62
2022/01/09 09:26:12;;;;;;;17.70;3.00;;;;;;;-149.78;100.00;50537.94;5075864;28;20414;-62
2022/01/09 09:28:39;;;;;;;27.35;3.58;;;;;;;-149.78;100.00;50604.44;5075909;28;20029;-61
2022/01/09 09:31:05;;;;;;;20.50;3.40;;;;;;;-149.78;100.00;50535.97;5075239;28;20036;-64
2022/01/09 09:33:31;;;;;;;18.60;3.08;;;;;;;-149.78;100.00;50577.06;5075693;28;20104;-64
2022/01/09 09:36:02;;;;;;;24.70;3.67;;;;;;;-149.78;100.00;50600.53;5075389;28;20128;-64
2022/01/09 09:38:29;;;;;;;20.17;3.83;;;;;;;-149.78;100.00;50541.84;5075599;28;20502;-62
2022/01/09 09:40:55;;;;;;;19.25;3.72;;;;;;;-149.78;100.00;50571.19;5075495;28;20369;-61
2022/01/09 09:43:21;;;;;;;14.13;3.00;;;;;;;-149.78;100.00;50530.13;5057105;28;20033;-62
2022/01/09 09:45:46;;;;;;;9.10;2.15;;;;;;;-149.78;100.00;50565.31;5074803;28;20044;-62
2022/01/09 09:48:12;;;;;;;16.45;2.60;;;;;;;-149.78;100.00;50522.28;5066195;28;20024;-62
2022/01/09 09:50:40;;;;;;;7.90;2.15;;;;;;;-149.78;100.00;50553.59;5047873;28;20033;-62
2022/01/09 09:53:05;;;;;;;10.80;2.28;;;;;;;-149.78;100.00;50528.16;5047651;28;20079;-62
2022/01/09 09:55:31;;;;;;;9.52;2.20;;;;;;;-149.78;100.00;50610.31;5057849;28;20029;-62
2022/01/09 09:57:57;;;;;;;14.02;2.78;;;;;;;-149.78;100.00;50588.78;5044484;28;20539;-62
2022/01/09 10:00:24;;;;;;;18.33;2.95;;;;;;;-149.78;100.00;50537.94;5067448;28;20024;-62
2022/01/09 10:02:58;;;;;;;13.68;3.35;;;;;;;-149.78;100.00;50565.31;5060468;28;20024;-61
2022/01/09 10:05:27;;;;;;;12.38;3.35;;;;;;;-149.78;100.00;50545.75;5059066;28;20552;-62
2022/01/09 10:07:55;;;;;;;15.77;3.40;;;;;;;-149.78;100.00;50549.69;5073008;28;20075;-61
2022/01/09 10:10:31;;;;;;;12.63;3.45;;;;;;;-149.78;100.00;50573.16;5073308;28;20044;-62
2022/01/09 10:13:14;;;;;;;21.10;4.10;;;;;;;-149.78;100.00;50561.41;5074909;28;20497;-62
2022/01/09 10:15:48;;;;;;;14.75;2.72;;;;;;;-149.78;100.00;50586.84;5074836;28;20044;-62
2022/01/09 10:18:48;;;;;;;11.20;2.83;;;;;;;-149.78;100.00;50580.97;5055995;28;20680;-62
2022/01/09 10:21:25;;;;;;;13.95;2.75;;;;;;;-149.78;100.00;50580.97;5061516;28;20090;-62
2022/01/09 10:24:24;;;;;;;13.52;2.70;;;;;;;-149.78;100.00;50555.53;5074321;28;20040;-62
2022/01/09 10:26:50;;;;;;;20.75;2.97;;;;;;;-149.78;100.00;50594.66;5023082;28;20145;-64
2022/01/09 10:29:19;;;;;;;12.82;2.50;;;;;;;-149.78;100.00;50530.13;5074155;28;20060;-64
2022/01/09 10:31:47;;;;;;;15.40;2.92;;;;;;;-149.78;100.00;50553.59;5056582;28;20028;-62
2022/01/09 10:34:16;;;;;;;9.20;2.90;;;;;;;-149.78;100.00;50563.38;5074213;28;20345;-62
2022/01/09 10:36:48;;;;;;;13.27;2.78;;;;;;;-149.78;100.00;50577.06;5074508;28;20040;-64
2022/01/09 10:39:36;;;;;;;29.92;3.08;;;;;;;-149.78;100.00;50545.75;5074458;28;20436;-64
2022/01/09 10:42:07;;;;;;;16.50;2.47;;;;;;;-149.78;100.00;50573.16;5074116;28;20055;-64
2022/01/09 10:44:38;;;;;;;16.50;2.53;;;;;;;-149.78;100.00;50530.13;5074027;28;20086;-64
2022/01/09 10:47:10;;;;;;;18.55;2.10;;;;;;;-149.78;100.00;50573.16;5074057;28;20483;-64
2022/01/09 10:49:39;;;;;;;19.92;2.70;;;;;;;-149.78;100.00;50539.91;5074095;28;20071;-64
2022/01/09 10:52:25;;;;;;;14.35;2.70;;;;;;;-149.78;100.00;50534.03;5073823;28;20032;-64
2022/01/09 10:54:54;;;;;;;12.35;2.20;;;;;;;-149.78;100.00;50526.22;5058334;28;20025;-64
2022/01/09 10:57:20;;;;;;;18.85;2.40;;;;;;;-149.78;100.00;50541.84;5073835;28;20086;-64
2022/01/09 10:59:47;;;;;;;18.42;2.17;;;;;;;-149.78;100.00;50534.03;5055822;28;20020;-64
2022/01/09 11:02:13;;;;;;;14.05;2.58;;;;;;;-149.78;100.00;50530.13;5073869;28;20447;-64
2022/01/09 11:04:43;;;;;;;13.70;3.65;;;;;;;-149.78;100.00;50528.16;5073545;28;20029;-65